createdAt,value
2023-03-03T00:00:15.216Z,1017.00
2023-03-03T00:01:15.197Z,1016.99
2023-03-03T00:02:15.251Z,1017.07
2023-03-03T00:03:15.228Z,1016.99
2023-03-03T00:04:15.140Z,1017.05
2023-03-03T00:05:15.118Z,1017.05
2023-03-03T00:06:15.105Z,1017.09
2023-03-03T00:07:15.097Z,1017.09
2023-03-03T00:08:15.129Z,1017.08
2023-03-03T00:09:15.072Z,1017.11
2023-03-03T00:10:15.050Z,1017.18
2023-03-03T00:11:15.056Z,1017.16
2023-03-03T00:12:15.029Z,1017.20
2023-03-03T00:13:15.047Z,1017.18
2023-03-03T00:14:15.010Z,1017.26
2023-03-03T00:15:15.031Z,1017.25
2023-03-03T00:16:15.078Z,1017.26
2023-03-03T00:17:14.986Z,1017.21
2023-03-03T00:18:14.998Z,1017.19
2023-03-03T00:19:14.980Z,1017.18
2023-03-03T00:20:14.981Z,1017.12
2023-03-03T00:21:14.940Z,1017.14
2023-03-03T00:22:14.926Z,1017.12
2023-03-03T00:23:14.947Z,1017.11
2023-03-03T00:24:14.956Z,1017.09
2023-03-03T00:25:14.910Z,1017.09
2023-03-03T00:26:14.878Z,1017.10
2023-03-03T00:27:14.891Z,1017.16
2023-03-03T00:28:14.884Z,1017.17
2023-03-03T00:29:14.857Z,1017.19
2023-03-03T00:30:14.853Z,1017.13
2023-03-03T00:31:14.933Z,1017.15
2023-03-03T00:32:14.865Z,1017.14
2023-03-03T00:33:14.838Z,1017.14
2023-03-03T00:34:14.794Z,1017.13
2023-03-03T00:35:14.783Z,1017.11
2023-03-03T00:36:14.830Z,1017.15
2023-03-03T00:37:14.767Z,1017.17
2023-03-03T00:38:14.800Z,1017.16
2023-03-03T00:39:14.750Z,1017.17
2023-03-03T00:40:14.759Z,1017.18
2023-03-03T00:41:14.735Z,1017.16
2023-03-03T00:42:14.709Z,1017.18
2023-03-03T00:43:14.749Z,1017.22
2023-03-03T00:44:14.682Z,1017.26
2023-03-03T00:45:14.684Z,1017.25
2023-03-03T00:46:14.711Z,1017.27
2023-03-03T00:47:14.656Z,1017.20
2023-03-03T00:48:14.681Z,1017.21
2023-03-03T00:49:14.633Z,1017.18
2023-03-03T00:50:14.618Z,1017.21
2023-03-03T00:51:14.644Z,1017.21
2023-03-03T00:52:14.596Z,1017.20
2023-03-03T00:53:14.664Z,1017.23
2023-03-03T00:54:14.582Z,1017.28
2023-03-03T00:55:14.569Z,1017.26
2023-03-03T00:56:14.553Z,1017.28
2023-03-03T00:57:14.559Z,1017.21
2023-03-03T00:58:14.554Z,1017.19
2023-03-03T00:59:14.539Z,1017.16
2023-03-03T01:00:14.515Z,1017.18
2023-03-03T01:01:14.532Z,1017.12
2023-03-03T01:02:14.524Z,1017.13
2023-03-03T01:03:14.529Z,1017.19
2023-03-03T01:04:14.461Z,1017.06
2023-03-03T01:05:14.472Z,1017.08
2023-03-03T01:06:14.444Z,1017.02
2023-03-03T01:07:14.438Z,1017.06
2023-03-03T01:08:14.446Z,1017.05
2023-03-03T01:09:14.417Z,1017.07
2023-03-03T01:10:14.392Z,1017.08
2023-03-03T01:11:14.385Z,1017.05
2023-03-03T01:12:14.391Z,1017.09
2023-03-03T01:13:14.393Z,1017.13
2023-03-03T01:14:14.387Z,1017.06
2023-03-03T01:15:14.343Z,1017.09
2023-03-03T01:16:14.413Z,1017.07
2023-03-03T01:17:14.321Z,1017.03
2023-03-03T01:18:14.362Z,1017.08
2023-03-03T01:19:14.301Z,1017.06
2023-03-03T01:20:14.298Z,1017.09
2023-03-03T01:21:14.284Z,1017.14
2023-03-03T01:22:14.267Z,1017.11
2023-03-03T01:23:14.279Z,1017.12
2023-03-03T01:24:14.236Z,1017.10
2023-03-03T01:25:14.246Z,1017.07
2023-03-03T01:26:14.236Z,1017.07
2023-03-03T01:27:14.224Z,1017.10
2023-03-03T01:28:14.256Z,1017.09
2023-03-03T01:29:14.192Z,1017.03
2023-03-03T01:30:14.189Z,1016.99
2023-03-03T01:31:14.217Z,1016.93
2023-03-03T01:32:14.189Z,1016.97
2023-03-03T01:33:14.176Z,1017.06
2023-03-03T01:34:14.128Z,1017.04
2023-03-03T01:35:14.125Z,1017.07
2023-03-03T01:36:14.108Z,1017.08
2023-03-03T01:37:14.095Z,1017.06
2023-03-03T01:38:14.112Z,1017.06
2023-03-03T01:39:14.097Z,1017.07
2023-03-03T01:40:14.064Z,1017.05
2023-03-03T01:41:14.050Z,1017.09
2023-03-03T01:42:14.046Z,1017.07
2023-03-03T01:43:14.075Z,1017.05
2023-03-03T01:44:14.030Z,1017.09
2023-03-03T01:45:14.076Z,1017.10
2023-03-03T01:46:14.018Z,1017.13
2023-03-03T01:47:13.989Z,1017.12
2023-03-03T01:48:13.997Z,1017.09
2023-03-03T01:49:14.001Z,1017.14
2023-03-03T01:50:13.951Z,1017.10
2023-03-03T01:51:13.936Z,1017.06
2023-03-03T01:52:13.923Z,1017.09
2023-03-03T01:53:13.940Z,1017.06
2023-03-03T01:54:13.896Z,1017.00
2023-03-03T01:55:13.907Z,1016.93
2023-03-03T01:56:13.880Z,1016.99
2023-03-03T01:57:13.876Z,1016.96
2023-03-03T01:58:13.905Z,1016.97
2023-03-03T01:59:13.857Z,1017.06
2023-03-03T02:00:13.841Z,1017.02
2023-03-03T02:01:13.830Z,1017.04
2023-03-03T02:02:13.819Z,1017.14
2023-03-03T02:03:13.830Z,1017.14
2023-03-03T02:04:13.826Z,1017.08
2023-03-03T02:05:13.785Z,1017.00
2023-03-03T02:06:13.784Z,1016.97
2023-03-03T02:07:13.786Z,1017.03
2023-03-03T02:08:13.772Z,1017.07
2023-03-03T02:09:13.744Z,1017.05
2023-03-03T02:10:13.736Z,1017.05
2023-03-03T02:11:13.714Z,1017.05
2023-03-03T02:12:13.740Z,1016.98
2023-03-03T02:13:13.722Z,1016.99
2023-03-03T02:14:13.704Z,1016.97
2023-03-03T02:15:13.682Z,1016.90
2023-03-03T02:16:13.719Z,1016.94
2023-03-03T02:17:13.655Z,1016.91
2023-03-03T02:18:13.678Z,1016.97
2023-03-03T02:19:13.693Z,1017.04
2023-03-03T02:20:13.620Z,1017.07
2023-03-03T02:21:13.621Z,1017.06
2023-03-03T02:22:13.605Z,1017.06
2023-03-03T02:23:13.637Z,1017.05
2023-03-03T02:24:13.574Z,1017.07
2023-03-03T02:25:13.574Z,1017.04
2023-03-03T02:26:13.560Z,1017.10
2023-03-03T02:27:13.552Z,1017.10
2023-03-03T02:28:13.550Z,1017.09
2023-03-03T02:29:13.531Z,1017.07
2023-03-03T02:30:13.510Z,1017.10
2023-03-03T02:31:13.703Z,1017.09
2023-03-03T02:32:13.517Z,1017.10
2023-03-03T02:33:13.508Z,1017.13
2023-03-03T02:34:13.478Z,1017.06
2023-03-03T02:35:13.462Z,1017.04
2023-03-03T02:36:13.441Z,1017.10
2023-03-03T02:37:13.466Z,1017.03
2023-03-03T02:38:13.419Z,1017.08
2023-03-03T02:39:13.446Z,1017.05
2023-03-03T02:40:13.405Z,1017.08
2023-03-03T02:41:13.404Z,1017.02
2023-03-03T02:42:13.373Z,1017.02
2023-03-03T02:43:13.384Z,1017.01
2023-03-03T02:44:13.380Z,1017.03
2023-03-03T02:45:13.354Z,1017.03
2023-03-03T02:46:13.334Z,1017.02
2023-03-03T02:47:13.322Z,1017.05
2023-03-03T02:48:13.307Z,1017.08
2023-03-03T02:49:13.319Z,1017.10
2023-03-03T02:50:13.305Z,1017.13
2023-03-03T02:51:13.274Z,1017.14
2023-03-03T02:52:13.254Z,1017.12
2023-03-03T02:53:13.256Z,1017.18
2023-03-03T02:54:13.309Z,1017.17
2023-03-03T02:55:13.245Z,1017.19
2023-03-03T02:56:13.219Z,1017.18
2023-03-03T02:57:13.209Z,1017.15
2023-03-03T02:58:13.187Z,1017.16
2023-03-03T02:59:13.210Z,1017.09
2023-03-03T03:00:13.167Z,1017.15
2023-03-03T03:01:13.216Z,1017.16
2023-03-03T03:02:13.142Z,1017.19
2023-03-03T03:03:13.137Z,1017.14
2023-03-03T03:04:13.193Z,1017.06
2023-03-03T03:05:13.121Z,1017.09
2023-03-03T03:06:13.107Z,1017.09
2023-03-03T03:07:13.107Z,1017.12
2023-03-03T03:08:13.098Z,1017.11
2023-03-03T03:09:13.122Z,1017.15
2023-03-03T03:10:13.073Z,1017.15
2023-03-03T03:11:13.050Z,1017.18
2023-03-03T03:12:13.054Z,1017.17
2023-03-03T03:13:13.025Z,1017.16
2023-03-03T03:14:13.033Z,1017.19
2023-03-03T03:15:13.013Z,1017.20
2023-03-03T03:16:13.027Z,1017.17
2023-03-03T03:17:12.977Z,1017.18
2023-03-03T03:18:13.008Z,1017.17
2023-03-03T03:19:12.982Z,1017.13
2023-03-03T03:20:12.961Z,1017.14
2023-03-03T03:21:12.947Z,1017.12
2023-03-03T03:22:12.969Z,1017.13
2023-03-03T03:23:12.913Z,1017.13
2023-03-03T03:24:12.926Z,1017.09
2023-03-03T03:25:12.895Z,1017.12
2023-03-03T03:26:12.880Z,1017.13
2023-03-03T03:27:12.907Z,1017.15
2023-03-03T03:28:12.856Z,1017.10
2023-03-03T03:29:12.905Z,1017.10
2023-03-03T03:30:12.832Z,1017.09
2023-03-03T03:31:12.889Z,1017.07
2023-03-03T03:32:12.927Z,1017.11
2023-03-03T03:33:12.819Z,1017.03
2023-03-03T03:34:12.808Z,1017.11
2023-03-03T03:35:12.780Z,1017.12
2023-03-03T03:36:12.768Z,1017.14
2023-03-03T03:37:12.758Z,1017.17
2023-03-03T03:38:12.749Z,1017.19
2023-03-03T03:39:12.759Z,1017.19
2023-03-03T03:40:12.725Z,1017.19
2023-03-03T03:41:12.713Z,1017.19
2023-03-03T03:42:12.702Z,1017.16
2023-03-03T03:43:12.687Z,1017.18
2023-03-03T03:44:12.718Z,1017.12
2023-03-03T03:45:12.695Z,1017.07
2023-03-03T03:46:12.721Z,1017.06
2023-03-03T03:47:12.633Z,1017.08
2023-03-03T03:48:12.677Z,1017.10
2023-03-03T03:49:12.649Z,1017.05
2023-03-03T03:50:12.606Z,1017.13
2023-03-03T03:51:12.614Z,1017.08
2023-03-03T03:52:12.593Z,1017.13
2023-03-03T03:53:12.577Z,1017.15
2023-03-03T03:54:12.622Z,1017.11
2023-03-03T03:55:12.556Z,1017.11
2023-03-03T03:56:12.540Z,1017.12
2023-03-03T03:57:12.533Z,1017.14
2023-03-03T03:58:12.554Z,1017.17
2023-03-03T03:59:12.533Z,1017.15
2023-03-03T04:00:12.512Z,1017.13
2023-03-03T04:01:12.483Z,1017.12
2023-03-03T04:02:12.562Z,1017.15
2023-03-03T04:03:12.572Z,1017.12
2023-03-03T04:04:12.479Z,1017.14
2023-03-03T04:05:12.449Z,1017.17
2023-03-03T04:06:12.432Z,1017.22
2023-03-03T04:07:12.420Z,1017.19
2023-03-03T04:08:12.412Z,1017.21
2023-03-03T04:09:12.441Z,1017.19
2023-03-03T04:10:12.391Z,1017.18
2023-03-03T04:11:12.373Z,1017.14
2023-03-03T04:12:12.374Z,1017.15
2023-03-03T04:13:12.352Z,1017.17
2023-03-03T04:14:12.385Z,1017.12
2023-03-03T04:15:12.342Z,1017.15
2023-03-03T04:16:12.411Z,1017.13
2023-03-03T04:17:12.314Z,1017.15
2023-03-03T04:18:12.305Z,1017.16
2023-03-03T04:19:12.327Z,1017.16
2023-03-03T04:20:12.278Z,1017.17
2023-03-03T04:21:12.268Z,1017.19
2023-03-03T04:22:12.260Z,1017.16
2023-03-03T04:23:12.273Z,1017.18
2023-03-03T04:24:12.264Z,1017.12
2023-03-03T04:25:12.224Z,1017.16
2023-03-03T04:26:12.209Z,1017.15
2023-03-03T04:27:12.205Z,1017.13
2023-03-03T04:28:12.195Z,1017.12
2023-03-03T04:29:12.216Z,1017.19
2023-03-03T04:30:12.189Z,1017.22
2023-03-03T04:31:12.219Z,1017.21
2023-03-03T04:32:12.162Z,1017.20
2023-03-03T04:33:12.162Z,1017.20
2023-03-03T04:34:12.145Z,1017.18
2023-03-03T04:35:12.125Z,1017.19
2023-03-03T04:36:12.111Z,1017.18
2023-03-03T04:37:12.109Z,1017.21
2023-03-03T04:38:12.079Z,1017.16
2023-03-03T04:39:12.095Z,1017.12
2023-03-03T04:40:12.058Z,1017.13
2023-03-03T04:41:12.064Z,1017.13
2023-03-03T04:42:12.033Z,1017.12
2023-03-03T04:43:12.062Z,1017.12
2023-03-03T04:44:12.034Z,1017.12
2023-03-03T04:45:12.017Z,1017.14
2023-03-03T04:46:12.028Z,1017.11
2023-03-03T04:47:11.988Z,1017.09
2023-03-03T04:48:11.971Z,1017.15
2023-03-03T04:49:12.620Z,1017.13
2023-03-03T04:50:11.942Z,1017.14
2023-03-03T04:51:11.941Z,1017.17
2023-03-03T04:52:11.919Z,1017.22
2023-03-03T04:53:11.916Z,1017.25
2023-03-03T04:54:11.943Z,1017.25
2023-03-03T04:55:11.897Z,1017.21
2023-03-03T04:56:11.910Z,1017.21
2023-03-03T04:57:11.882Z,1017.27
2023-03-03T04:58:11.866Z,1017.28
2023-03-03T04:59:11.877Z,1017.21
2023-03-03T05:00:11.857Z,1017.22
2023-03-03T05:01:11.869Z,1017.23
2023-03-03T05:02:11.811Z,1017.21
2023-03-03T05:03:11.821Z,1017.28
2023-03-03T05:04:11.809Z,1017.26
2023-03-03T05:05:11.786Z,1017.24
2023-03-03T05:06:11.765Z,1017.26
2023-03-03T05:07:11.761Z,1017.22
2023-03-03T05:08:11.734Z,1017.23
2023-03-03T05:09:11.759Z,1017.19
2023-03-03T05:10:11.757Z,1017.19
2023-03-03T05:11:11.706Z,1017.19
2023-03-03T05:12:11.693Z,1017.21
2023-03-03T05:13:11.689Z,1017.24
2023-03-03T05:14:11.699Z,1017.20
2023-03-03T05:15:11.689Z,1017.21
2023-03-03T05:16:11.677Z,1017.27
2023-03-03T05:17:11.638Z,1017.26
2023-03-03T05:18:11.631Z,1017.26
2023-03-03T05:19:11.699Z,1017.30
2023-03-03T05:20:11.612Z,1017.30
2023-03-03T05:21:11.595Z,1017.27
2023-03-03T05:22:11.585Z,1017.28
2023-03-03T05:23:11.575Z,1017.31
2023-03-03T05:24:11.585Z,1017.34
2023-03-03T05:25:11.583Z,1017.33
2023-03-03T05:26:11.550Z,1017.36
2023-03-03T05:27:11.536Z,1017.37
2023-03-03T05:28:11.525Z,1017.38
2023-03-03T05:29:11.563Z,1017.34
2023-03-03T05:30:11.492Z,1017.39
2023-03-03T05:31:11.554Z,1017.42
2023-03-03T05:32:11.527Z,1017.40
2023-03-03T05:33:11.498Z,1017.39
2023-03-03T05:34:11.473Z,1017.38
2023-03-03T05:35:11.442Z,1017.36
2023-03-03T05:36:11.424Z,1017.44
2023-03-03T05:37:11.424Z,1017.39
2023-03-03T05:38:11.406Z,1017.44
2023-03-03T05:39:11.429Z,1017.41
2023-03-03T05:40:11.391Z,1017.44
2023-03-03T05:41:11.376Z,1017.47
2023-03-03T05:42:11.360Z,1017.47
2023-03-03T05:43:11.357Z,1017.45
2023-03-03T05:44:11.381Z,1017.42
2023-03-03T05:45:11.328Z,1017.44
2023-03-03T05:46:11.352Z,1017.42
2023-03-03T05:47:11.317Z,1017.45
2023-03-03T05:48:11.298Z,1017.51
2023-03-03T05:49:11.305Z,1017.50
2023-03-03T05:50:11.274Z,1017.46
2023-03-03T05:51:11.261Z,1017.50
2023-03-03T05:52:11.251Z,1017.44
2023-03-03T05:53:11.261Z,1017.44
2023-03-03T05:54:11.282Z,1017.43
2023-03-03T05:55:11.218Z,1017.44
2023-03-03T05:56:11.202Z,1017.49
2023-03-03T05:57:11.264Z,1017.47
2023-03-03T05:58:11.255Z,1017.44
2023-03-03T05:59:11.191Z,1017.42
2023-03-03T06:00:11.161Z,1017.43
2023-03-03T06:01:11.148Z,1017.49
2023-03-03T06:02:11.201Z,1017.46
2023-03-03T06:03:11.129Z,1017.43
2023-03-03T06:04:11.140Z,1017.52
2023-03-03T06:05:11.113Z,1017.47
2023-03-03T06:06:11.093Z,1017.49
2023-03-03T06:07:11.088Z,1017.48
2023-03-03T06:08:11.077Z,1017.49
2023-03-03T06:09:11.088Z,1017.49
2023-03-03T06:10:11.071Z,1017.54
2023-03-03T06:11:11.040Z,1017.52
2023-03-03T06:12:11.036Z,1017.52
2023-03-03T06:13:11.024Z,1017.54
2023-03-03T06:14:11.041Z,1017.54
2023-03-03T06:15:11.009Z,1017.54
2023-03-03T06:16:11.048Z,1017.54
2023-03-03T06:17:10.986Z,1017.58
2023-03-03T06:18:10.958Z,1017.62
2023-03-03T06:19:10.982Z,1017.61
2023-03-03T06:20:10.937Z,1017.60
2023-03-03T06:21:10.930Z,1017.64
2023-03-03T06:22:10.953Z,1017.57
2023-03-03T06:23:10.928Z,1017.64
2023-03-03T06:24:10.919Z,1017.61
2023-03-03T06:25:10.926Z,1017.65
2023-03-03T06:26:10.874Z,1017.65
2023-03-03T06:27:10.892Z,1017.65
2023-03-03T06:28:10.850Z,1017.68
2023-03-03T06:29:10.866Z,1017.67
2023-03-03T06:30:10.832Z,1017.69
2023-03-03T06:31:10.832Z,1017.67
2023-03-03T06:32:10.927Z,1017.67
2023-03-03T06:33:10.802Z,1017.65
2023-03-03T06:34:10.803Z,1017.62
2023-03-03T06:35:10.802Z,1017.63
2023-03-03T06:36:10.770Z,1017.66
2023-03-03T06:37:10.759Z,1017.67
2023-03-03T06:38:10.742Z,1017.66
2023-03-03T06:39:10.766Z,1017.73
2023-03-03T06:40:10.777Z,1017.78
2023-03-03T06:41:10.713Z,1017.73
2023-03-03T06:42:10.699Z,1017.72
2023-03-03T06:43:10.689Z,1017.74
2023-03-03T06:44:10.696Z,1017.75
2023-03-03T06:45:10.664Z,1017.77
2023-03-03T06:46:10.783Z,1017.79
2023-03-03T06:47:10.644Z,1017.78
2023-03-03T06:48:10.635Z,1017.78
2023-03-03T06:49:10.646Z,1017.84
2023-03-03T06:50:10.604Z,1017.81
2023-03-03T06:51:10.613Z,1017.78
2023-03-03T06:52:10.579Z,1017.79
2023-03-03T06:53:10.572Z,1017.80
2023-03-03T06:54:10.578Z,1017.81
2023-03-03T06:55:10.552Z,1017.84
2023-03-03T06:56:10.545Z,1017.84
2023-03-03T06:57:10.528Z,1017.88
2023-03-03T06:58:10.547Z,1017.84
2023-03-03T06:59:10.523Z,1017.90
2023-03-03T07:00:10.501Z,1017.92
2023-03-03T07:01:10.508Z,1017.95
2023-03-03T07:02:10.475Z,1017.97
2023-03-03T07:03:10.464Z,1017.92
2023-03-03T07:04:10.509Z,1017.96
2023-03-03T07:05:10.494Z,1017.93
2023-03-03T07:06:10.430Z,1017.96
2023-03-03T07:07:10.431Z,1017.98
2023-03-03T07:08:10.414Z,1017.99
2023-03-03T07:09:10.452Z,1017.98
2023-03-03T07:10:10.392Z,1017.99
2023-03-03T07:11:10.387Z,1018.00
2023-03-03T07:12:10.380Z,1018.02
2023-03-03T07:13:10.358Z,1018.03
2023-03-03T07:14:10.369Z,1018.00
2023-03-03T07:15:10.344Z,1018.01
2023-03-03T07:16:10.396Z,1018.00
2023-03-03T07:17:10.320Z,1018.02
2023-03-03T07:18:10.312Z,1018.03
2023-03-03T07:19:10.366Z,1017.97
2023-03-03T07:20:10.293Z,1018.02
2023-03-03T07:21:10.307Z,1018.02
2023-03-03T07:22:10.319Z,1018.07
2023-03-03T07:23:10.264Z,1018.07
2023-03-03T07:24:10.262Z,1018.05
2023-03-03T07:25:10.265Z,1018.11
2023-03-03T07:26:10.215Z,1018.11
2023-03-03T07:27:10.213Z,1018.12
2023-03-03T07:28:10.239Z,1018.14
2023-03-03T07:29:10.248Z,1018.14
2023-03-03T07:30:10.193Z,1018.17
2023-03-03T07:31:10.257Z,1018.18
2023-03-03T07:32:10.171Z,1018.17
2023-03-03T07:33:10.172Z,1018.19
2023-03-03T07:34:10.149Z,1018.18
2023-03-03T07:35:10.128Z,1018.20
2023-03-03T07:36:10.120Z,1018.25
2023-03-03T07:37:10.100Z,1018.24
2023-03-03T07:38:10.101Z,1018.27
2023-03-03T07:39:10.149Z,1018.27
2023-03-03T07:40:10.057Z,1018.31
2023-03-03T07:41:10.059Z,1018.24
2023-03-03T07:42:10.060Z,1018.25
2023-03-03T07:43:10.094Z,1018.26
2023-03-03T07:44:10.043Z,1018.28
2023-03-03T07:45:10.077Z,1018.30
2023-03-03T07:46:10.098Z,1018.30
2023-03-03T07:47:10.000Z,1018.31
2023-03-03T07:48:10.002Z,1018.31
2023-03-03T07:49:09.989Z,1018.33
2023-03-03T07:50:09.953Z,1018.39
2023-03-03T07:51:09.964Z,1018.37
2023-03-03T07:52:09.964Z,1018.38
2023-03-03T07:53:09.922Z,1018.43
2023-03-03T07:54:09.936Z,1018.44
2023-03-03T07:55:09.900Z,1018.47
2023-03-03T07:56:09.896Z,1018.48
2023-03-03T07:57:09.889Z,1018.50
2023-03-03T07:58:09.865Z,1018.53
2023-03-03T07:59:09.895Z,1018.49
2023-03-03T08:00:09.840Z,1018.50
2023-03-03T08:01:09.834Z,1018.50
2023-03-03T08:02:09.839Z,1018.56
2023-03-03T08:03:09.818Z,1018.55
2023-03-03T08:04:10.017Z,1018.54
2023-03-03T08:05:09.944Z,1018.55
2023-03-03T08:06:09.782Z,1018.58
2023-03-03T08:07:09.769Z,1018.58
2023-03-03T08:08:09.766Z,1018.61
2023-03-03T08:09:09.772Z,1018.62
2023-03-03T08:10:09.776Z,1018.60
2023-03-03T08:11:09.738Z,1018.60
2023-03-03T08:12:09.771Z,1018.61
2023-03-03T08:13:09.694Z,1018.56
2023-03-03T08:14:09.702Z,1018.58
2023-03-03T08:15:09.684Z,1018.62
2023-03-03T08:16:09.748Z,1018.63
2023-03-03T08:17:09.653Z,1018.68
2023-03-03T08:18:09.649Z,1018.66
2023-03-03T08:19:09.646Z,1018.68
2023-03-03T08:20:09.615Z,1018.69
2023-03-03T08:21:09.593Z,1018.72
2023-03-03T08:22:09.584Z,1018.74
2023-03-03T08:23:09.593Z,1018.69
2023-03-03T08:24:09.579Z,1018.75
2023-03-03T08:25:09.549Z,1018.70
2023-03-03T08:26:09.529Z,1018.71
2023-03-03T08:27:09.553Z,1018.70
2023-03-03T08:28:09.510Z,1018.74
2023-03-03T08:29:09.545Z,1018.72
2023-03-03T08:30:09.489Z,1018.73
2023-03-03T08:31:22.281Z,1018.69
2023-03-03T08:32:09.569Z,1018.70
2023-03-03T08:33:09.462Z,1018.72
2023-03-03T08:34:09.490Z,1018.76
2023-03-03T08:35:09.434Z,1018.76
2023-03-03T08:36:09.425Z,1018.76
2023-03-03T08:37:09.411Z,1018.74
2023-03-03T08:38:09.438Z,1018.73
2023-03-03T08:39:09.431Z,1018.72
2023-03-03T08:40:09.377Z,1018.75
2023-03-03T08:41:09.360Z,1018.73
2023-03-03T08:42:09.397Z,1018.70
2023-03-03T08:43:09.353Z,1018.68
2023-03-03T08:44:09.414Z,1018.71
2023-03-03T08:45:09.333Z,1018.73
2023-03-03T08:46:09.332Z,1018.67
2023-03-03T08:47:09.320Z,1018.67
2023-03-03T08:48:09.291Z,1018.62
2023-03-03T08:49:09.313Z,1018.64
2023-03-03T08:50:09.286Z,1018.62
2023-03-03T08:51:09.284Z,1018.64
2023-03-03T08:52:09.247Z,1018.65
2023-03-03T08:53:09.239Z,1018.68
2023-03-03T08:54:09.249Z,1018.67
2023-03-03T08:55:09.221Z,1018.67
2023-03-03T08:56:09.202Z,1018.66
2023-03-03T08:57:09.188Z,1018.67
2023-03-03T08:58:09.200Z,1018.66
2023-03-03T08:59:09.197Z,1018.64
2023-03-03T09:00:09.187Z,1018.70
2023-03-03T09:01:09.141Z,1018.69
2023-03-03T09:02:09.278Z,1018.66
2023-03-03T09:03:09.122Z,1018.71
2023-03-03T09:04:09.215Z,1018.66
2023-03-03T09:05:09.091Z,1018.72
2023-03-03T09:06:09.106Z,1018.70
2023-03-03T09:07:09.092Z,1018.71
2023-03-03T09:08:09.092Z,1018.76
2023-03-03T09:09:09.071Z,1018.74
2023-03-03T09:10:09.046Z,1018.77
2023-03-03T09:11:09.031Z,1018.79
2023-03-03T09:12:09.037Z,1018.77
2023-03-03T09:13:09.509Z,1018.80
2023-03-03T09:14:09.039Z,1018.83
2023-03-03T09:15:08.980Z,1018.82
2023-03-03T09:16:09.021Z,1018.87
2023-03-03T09:17:08.992Z,1018.86
2023-03-03T09:18:09.009Z,1018.85
2023-03-03T09:19:08.956Z,1018.86
2023-03-03T09:20:08.937Z,1018.84
2023-03-03T09:21:08.924Z,1018.84
2023-03-03T09:22:08.917Z,1018.85
2023-03-03T09:23:08.897Z,1018.86
2023-03-03T09:24:08.936Z,1018.87
2023-03-03T09:25:08.867Z,1018.82
2023-03-03T09:26:08.860Z,1018.86
2023-03-03T09:27:08.879Z,1018.86
2023-03-03T09:28:08.848Z,1018.78
2023-03-03T09:29:08.843Z,1018.81
2023-03-03T09:30:08.826Z,1018.82
2023-03-03T09:31:08.862Z,1018.80
2023-03-03T09:32:08.902Z,1018.79
2023-03-03T09:33:08.779Z,1018.81
2023-03-03T09:34:08.819Z,1018.87
2023-03-03T09:35:08.756Z,1018.83
2023-03-03T09:36:08.758Z,1018.80
2023-03-03T09:37:11.503Z,1018.85
2023-03-03T09:38:08.778Z,1018.89
2023-03-03T09:39:08.754Z,1018.86
2023-03-03T09:40:08.706Z,1018.81
2023-03-03T09:41:08.690Z,1018.85
2023-03-03T09:42:08.684Z,1018.81
2023-03-03T09:43:08.692Z,1018.87
2023-03-03T09:44:08.685Z,1018.84
2023-03-03T09:45:08.673Z,1018.86
2023-03-03T09:46:08.638Z,1018.85
2023-03-03T09:47:08.620Z,1018.82
2023-03-03T09:48:08.653Z,1018.84
2023-03-03T09:49:08.650Z,1018.88
2023-03-03T09:50:08.611Z,1018.89
2023-03-03T09:51:08.576Z,1018.87
2023-03-03T09:52:08.573Z,1018.88
2023-03-03T09:53:08.560Z,1018.87
2023-03-03T09:54:08.569Z,1018.86
2023-03-03T09:55:08.535Z,1018.88
2023-03-03T09:56:08.528Z,1018.87
2023-03-03T09:57:08.544Z,1018.89
2023-03-03T09:58:11.145Z,1018.92
2023-03-03T09:59:08.530Z,1018.94
2023-03-03T10:00:08.479Z,1018.93
2023-03-03T10:01:08.503Z,1018.91
2023-03-03T10:02:08.465Z,1018.98
2023-03-03T10:03:08.470Z,1018.96
2023-03-03T10:04:08.516Z,1018.95
2023-03-03T10:05:08.424Z,1019.01
2023-03-03T10:06:08.417Z,1018.97
2023-03-03T10:07:08.401Z,1018.99
2023-03-03T10:08:08.412Z,1018.97
2023-03-03T10:09:08.402Z,1019.07
2023-03-03T10:10:08.373Z,1019.06
2023-03-03T10:11:08.373Z,1019.11
2023-03-03T10:12:08.341Z,1019.08
2023-03-03T10:13:08.347Z,1019.08
2023-03-03T10:14:08.454Z,1019.11
2023-03-03T10:15:08.319Z,1019.11
2023-03-03T10:16:08.354Z,1019.12
2023-03-03T10:17:08.285Z,1019.14
2023-03-03T10:18:08.289Z,1019.10
2023-03-03T10:19:08.289Z,1019.12
2023-03-03T10:20:08.284Z,1019.12
2023-03-03T10:21:08.242Z,1019.14
2023-03-03T10:22:08.243Z,1019.12
2023-03-03T10:23:08.238Z,1019.10
2023-03-03T10:24:08.229Z,1019.08
2023-03-03T10:25:08.213Z,1019.10
2023-03-03T10:26:08.200Z,1019.11
2023-03-03T10:27:14.730Z,1019.11
2023-03-03T10:28:08.189Z,1019.18
2023-03-03T10:29:08.165Z,1019.18
2023-03-03T10:30:08.148Z,1019.17
2023-03-03T10:31:12.116Z,1019.14
2023-03-03T10:32:08.242Z,1019.13
2023-03-03T10:33:08.298Z,1019.13
2023-03-03T10:34:08.115Z,1019.16
2023-03-03T10:35:08.080Z,1019.12
2023-03-03T10:36:08.124Z,1019.10
2023-03-03T10:37:08.058Z,1019.15
2023-03-03T10:38:08.054Z,1019.09
2023-03-03T10:39:08.070Z,1019.10
2023-03-03T10:40:08.035Z,1019.10
2023-03-03T10:41:08.013Z,1019.11
2023-03-03T10:42:08.029Z,1019.09
2023-03-03T10:43:07.995Z,1019.15
2023-03-03T10:44:08.033Z,1019.11
2023-03-03T10:45:07.993Z,1019.09
2023-03-03T10:46:07.985Z,1019.10
2023-03-03T10:47:07.945Z,1019.12
2023-03-03T10:48:07.941Z,1019.16
2023-03-03T10:49:07.955Z,1019.18
2023-03-03T10:50:07.915Z,1019.15
2023-03-03T10:51:07.906Z,1019.18
2023-03-03T10:52:07.892Z,1019.15
2023-03-03T10:53:07.900Z,1019.20
2023-03-03T10:54:07.907Z,1019.14
2023-03-03T10:55:07.860Z,1019.16
2023-03-03T10:56:07.852Z,1019.16
2023-03-03T10:57:07.849Z,1019.17
2023-03-03T10:58:07.830Z,1019.17
2023-03-03T10:59:07.827Z,1019.17
2023-03-03T11:00:07.806Z,1019.11
2023-03-03T11:01:07.893Z,1019.18
2023-03-03T11:02:07.781Z,1019.07
2023-03-03T11:03:07.768Z,1019.13
2023-03-03T11:04:07.812Z,1019.11
2023-03-03T11:05:07.760Z,1019.12
2023-03-03T11:06:07.765Z,1019.14
2023-03-03T11:07:07.734Z,1019.16
2023-03-03T11:08:07.710Z,1019.18
2023-03-03T11:09:07.771Z,1019.17
2023-03-03T11:10:07.730Z,1019.15
2023-03-03T11:11:07.680Z,1019.11
2023-03-03T11:12:07.665Z,1019.13
2023-03-03T11:13:07.653Z,1019.14
2023-03-03T11:14:07.672Z,1019.14
2023-03-03T11:15:07.633Z,1019.15
2023-03-03T11:16:07.623Z,1019.10
2023-03-03T11:17:07.618Z,1019.09
2023-03-03T11:18:07.603Z,1019.12
2023-03-03T11:19:07.607Z,1019.14
2023-03-03T11:20:07.583Z,1019.10
2023-03-03T11:21:07.568Z,1019.12
2023-03-03T11:22:07.580Z,1019.13
2023-03-03T11:23:07.539Z,1019.13
2023-03-03T11:24:07.553Z,1019.09
2023-03-03T11:25:07.527Z,1019.07
2023-03-03T11:26:07.549Z,1019.06
2023-03-03T11:27:07.493Z,1019.02
2023-03-03T11:28:07.494Z,1019.03
2023-03-03T11:29:07.526Z,1018.95
2023-03-03T11:30:07.482Z,1018.97
2023-03-03T11:31:07.473Z,1018.98
2023-03-03T11:32:07.488Z,1019.01
2023-03-03T11:33:07.435Z,1018.98
2023-03-03T11:34:07.458Z,1018.99
2023-03-03T11:35:07.402Z,1019.00
2023-03-03T11:36:07.399Z,1018.91
2023-03-03T11:37:07.381Z,1018.93
2023-03-03T11:38:07.422Z,1018.95
2023-03-03T11:39:07.384Z,1018.97
2023-03-03T11:40:07.351Z,1018.97
2023-03-03T11:41:07.336Z,1018.93
2023-03-03T11:42:07.336Z,1018.95
2023-03-03T11:43:07.313Z,1018.93
2023-03-03T11:44:07.329Z,1018.92
2023-03-03T11:45:07.290Z,1018.89
2023-03-03T11:46:07.345Z,1018.89
2023-03-03T11:47:07.273Z,1018.91
2023-03-03T11:48:07.268Z,1018.91
2023-03-03T11:49:07.269Z,1018.95
2023-03-03T11:50:07.277Z,1018.89
2023-03-03T11:51:07.221Z,1018.93
2023-03-03T11:52:07.231Z,1018.89
2023-03-03T11:53:07.210Z,1018.88
2023-03-03T11:54:07.222Z,1018.88
2023-03-03T11:55:07.187Z,1018.85
2023-03-03T11:56:07.171Z,1018.86
2023-03-03T11:57:07.157Z,1018.80
2023-03-03T11:58:07.170Z,1018.78
2023-03-03T11:59:07.155Z,1018.79
2023-03-03T12:00:07.127Z,1018.78
2023-03-03T12:01:07.136Z,1018.80
2023-03-03T12:02:07.130Z,1018.77
2023-03-03T12:03:07.090Z,1018.77
2023-03-03T12:04:07.104Z,1018.81
2023-03-03T12:05:07.076Z,1018.76